Time;durP1;ratioP1;P1;durP2;ratioP2;P2;SDS_P1;SDS_P2;PMS_P1;PMS_P2;Temp;Humidity;BMP_temperature;BMP_pressure;BME280_temperature;BME280_humidity;BME280_pressure;Samples;Min_cycle;Max_cycle;Signal;HPM_P1;HPM_P2
2021/09/22 00:02:55;;;;;;;10.20;6.60;;;;;;;9.30;92.31;97345.72;5265137;56;20576;-74
2021/09/22 00:07:58;;;;;;;8.80;6.38;;;;;;;9.33;92.56;97341.31;5264773;56;20143;-74
2021/09/22 00:13:00;;;;;;;7.07;5.95;;;;;;;9.19;92.47;97334.16;5264875;56;20120;-74
2021/09/22 00:18:03;;;;;;;7.93;6.00;;;;;;;9.13;92.54;97330.34;5264789;56;20121;-74
2021/09/22 00:23:06;;;;;;;8.73;6.25;;;;;;;9.08;92.88;97333.59;5264723;56;20604;-73
2021/09/22 00:28:09;;;;;;;9.15;6.45;;;;;;;8.99;92.85;97340.91;5264780;56;20299;-73
2021/09/22 00:33:11;;;;;;;8.60;6.35;;;;;;;8.98;92.67;97334.59;5264749;56;20133;-74
2021/09/22 00:38:14;;;;;;;7.60;5.47;;;;;;;9.11;92.20;97329.97;5264462;56;20549;-74
2021/09/22 00:43:16;;;;;;;6.78;5.53;;;;;;;9.07;92.33;97312.75;5264577;56;20146;-73
2021/09/22 00:48:21;;;;;;;8.50;4.85;;;;;;;8.96;92.88;97317.72;5264868;56;20203;-74
2021/09/22 00:53:23;;;;;;;6.10;5.35;;;;;;;8.88;93.12;97319.09;5264370;56;20116;-75
2021/09/22 00:58:26;;;;;;;8.27;5.55;;;;;;;8.88;92.96;97332.88;5264551;56;20124;-74
2021/09/22 01:03:29;;;;;;;9.85;6.22;;;;;;;8.76;93.59;97322.50;5264983;56;20116;-73
2021/09/22 01:08:33;;;;;;;8.85;6.38;;;;;;;8.84;93.07;97317.63;5263926;56;20129;-73
2021/09/22 01:13:35;;;;;;;7.95;6.35;;;;;;;8.74;93.09;97321.34;5264049;56;20120;-74
2021/09/22 01:18:37;;;;;;;11.32;7.68;;;;;;;8.72;93.49;97309.97;5254677;56;20120;-74
2021/09/22 01:23:40;;;;;;;7.63;5.70;;;;;;;8.68;92.65;97317.56;5263736;56;20125;-74
2021/09/22 01:28:43;;;;;;;10.43;6.68;;;;;;;8.68;94.26;97312.03;5263258;56;20129;-74
2021/09/22 01:33:45;;;;;;;8.82;7.10;;;;;;;8.64;93.71;97303.84;5263755;56;20219;-74
2021/09/22 01:38:47;;;;;;;9.95;6.85;;;;;;;8.49;93.20;97266.78;5263501;56;20887;-74
2021/09/22 01:43:51;;;;;;;9.48;6.90;;;;;;;8.73;92.64;97282.00;5263266;56;20851;-74
2021/09/22 01:48:53;;;;;;;8.75;6.45;;;;;;;8.64;92.69;97296.34;5263432;56;20139;-74
2021/09/22 01:53:55;;;;;;;7.28;5.65;;;;;;;8.65;92.68;97278.63;5264287;56;20133;-74
2021/09/22 01:58:58;;;;;;;6.90;5.78;;;;;;;8.68;91.83;97293.53;5254343;56;20116;-74
2021/09/22 02:04:00;;;;;;;8.95;6.50;;;;;;;8.50;92.12;97310.41;5263358;56;20120;-74
2021/09/22 02:09:04;;;;;;;9.60;6.50;;;;;;;8.41;92.77;97312.22;5263619;56;20182;-74
2021/09/22 02:14:06;;;;;;;7.63;5.72;;;;;;;8.36;93.20;97318.19;5263066;56;20213;-75
2021/09/22 02:19:09;;;;;;;8.40;6.47;;;;;;;8.35;92.72;97333.16;5262885;56;20124;-74
2021/09/22 02:24:12;;;;;;;8.52;6.95;;;;;;;8.42;92.91;97327.50;5262795;56;20718;-72
2021/09/22 02:29:14;;;;;;;10.77;6.03;;;;;;;8.39;92.39;97329.13;5262960;56;20121;-74
2021/09/22 02:34:17;;;;;;;10.18;6.20;;;;;;;8.25;92.52;97328.63;5263023;56;20112;-73
2021/09/22 02:39:19;;;;;;;7.63;6.07;;;;;;;8.23;92.74;97329.03;5262182;56;20120;-74
2021/09/22 02:44:22;;;;;;;9.05;6.45;;;;;;;8.20;93.15;97334.59;5262428;56;20880;-74
2021/09/22 02:49:25;;;;;;;8.35;6.03;;;;;;;8.13;92.69;97343.78;5262765;56;20143;-74
2021/09/22 02:54:28;;;;;;;7.82;5.88;;;;;;;8.11;92.57;97332.41;5253731;56;20126;-74
2021/09/22 02:59:30;;;;;;;8.75;6.43;;;;;;;8.27;91.64;97324.28;5262362;56;20129;-73
2021/09/22 03:04:32;;;;;;;7.97;6.47;;;;;;;8.11;92.19;97335.16;5262289;56;20120;-74
2021/09/22 03:09:35;;;;;;;8.38;6.05;;;;;;;7.95;92.17;97333.09;5262089;56;20129;-74
2021/09/22 03:14:37;;;;;;;9.57;6.38;;;;;;;8.02;92.15;97337.69;5262436;56;20759;-73
2021/09/22 03:19:39;;;;;;;7.25;5.72;;;;;;;7.84;92.40;97328.97;5262584;56;20639;-73
2021/09/22 03:24:48;;;;;;;7.68;5.63;;;;;;;7.89;92.41;97339.50;5262184;56;20152;-74
2021/09/22 03:29:51;;;;;;;7.80;5.93;;;;;;;7.84;92.63;97331.72;5261930;56;20139;-74
2021/09/22 03:34:54;;;;;;;6.45;5.30;;;;;;;7.76;92.73;97338.53;5262005;56;20112;-75
2021/09/22 03:39:56;;;;;;;7.53;5.57;;;;;;;7.75;92.45;97340.53;5261720;56;20152;-74
2021/09/22 03:44:58;;;;;;;9.00;5.90;;;;;;;7.75;92.59;97340.53;5262114;56;20121;-74
2021/09/22 03:50:06;;;;;;;8.18;6.13;;;;;;;7.81;92.70;97340.81;5262023;56;20121;-74
2021/09/22 03:55:09;;;;;;;11.35;5.57;;;;;;;7.76;92.84;97338.53;5265061;56;20124;-75
2021/09/22 04:00:11;;;;;;;7.43;5.88;;;;;;;7.79;93.16;97323.94;5265023;56;20129;-73
2021/09/22 04:05:14;;;;;;;6.25;5.63;;;;;;;7.70;92.93;97332.75;5265373;56;20112;-72
2021/09/22 04:10:16;;;;;;;8.75;5.75;;;;;;;7.64;92.58;97333.63;5264953;56;20129;-72
2021/09/22 04:15:19;;;;;;;6.90;5.60;;;;;;;7.58;92.84;97327.81;5264799;56;20580;-73
2021/09/22 04:20:21;;;;;;;9.13;6.15;;;;;;;7.50;93.32;97333.88;5264709;56;20112;-75
2021/09/22 04:25:24;;;;;;;9.90;6.28;;;;;;;7.42;93.50;97337.94;5264598;56;20853;-75
2021/09/22 04:30:26;;;;;;;8.18;6.85;;;;;;;7.50;92.95;97329.16;5255855;56;20138;-77
2021/09/22 04:35:30;;;;;;;9.98;6.43;;;;;;;7.54;93.13;97338.13;5264425;56;20125;-73
2021/09/22 04:40:33;;;;;;;7.60;5.65;;;;;;;7.50;92.66;97331.91;5264711;56;20116;-73
2021/09/22 04:45:36;;;;;;;8.45;6.43;;;;;;;7.51;93.29;97333.44;5264229;56;20143;-72
2021/09/22 04:50:38;;;;;;;9.07;6.40;;;;;;;7.52;93.00;97328.72;5264309;56;20231;-73
2021/09/22 04:55:41;;;;;;;7.35;5.95;;;;;;;7.49;92.89;97337.78;5264078;56;20129;-72
2021/09/22 05:00:43;;;;;;;7.28;5.95;;;;;;;7.42;93.17;97337.94;5276958;44;20134;-74
2021/09/22 05:05:46;;;;;;;8.13;6.15;;;;;;;7.40;93.86;97357.56;5271426;56;20120;-75
2021/09/22 05:10:48;;;;;;;9.52;6.55;;;;;;;7.50;93.37;97355.88;5273965;56;20675;-74
2021/09/22 05:15:51;;;;;;;10.70;6.40;;;;;;;7.52;92.83;97365.25;5274352;56;20125;-72
2021/09/22 05:20:53;;;;;;;8.88;6.45;;;;;;;7.60;92.72;97363.19;5276058;56;20112;-73
2021/09/22 05:25:55;;;;;;;10.65;6.85;;;;;;;7.79;92.70;97356.97;5274702;56;20128;-74
2021/09/22 05:30:58;;;;;;;8.45;5.82;;;;;;;7.85;92.18;97352.53;5274087;56;20278;-76
2021/09/22 05:36:00;;;;;;;8.05;5.68;;;;;;;7.87;92.39;97358.38;5274285;56;20150;-74
2021/09/22 05:41:03;;;;;;;8.65;6.15;;;;;;;7.98;92.15;97348.75;5278997;56;20125;-72
2021/09/22 05:46:05;;;;;;;11.18;6.00;;;;;;;8.16;92.31;97356.72;5278381;56;20111;-73
2021/09/22 05:51:07;;;;;;;11.98;7.13;;;;;;;8.53;91.01;97363.88;5278501;56;20147;-73
2021/09/22 05:56:11;;;;;;;10.10;6.70;;;;;;;8.78;90.77;97350.41;5278610;56;20108;-73
2021/09/22 06:01:14;;;;;;;9.90;7.13;;;;;;;9.01;90.07;97369.59;5278028;56;20137;-73
2021/09/22 06:06:16;;;;;;;10.95;7.75;;;;;;;9.29;89.38;97357.19;5276544;56;20173;-74
2021/09/22 06:11:19;;;;;;;12.52;8.43;;;;;;;9.38;90.59;97357.38;5277976;56;20124;-74
2021/09/22 06:16:23;;;;;;;12.15;8.63;;;;;;;9.61;90.74;97357.19;5282118;56;20125;-73
2021/09/22 06:21:25;;;;;;;12.65;9.32;;;;;;;9.79;90.62;97351.25;5281286;56;20116;-74
2021/09/22 06:26:28;;;;;;;11.98;8.20;;;;;;;10.09;88.42;97359.94;5278391;56;20116;-74
2021/09/22 06:31:30;;;;;;;11.30;8.15;;;;;;;10.42;87.48;97360.69;5267896;56;20129;-74
2021/09/22 06:36:33;;;;;;;10.07;7.22;;;;;;;10.68;85.79;97367.84;5270658;56;20124;-74
2021/09/22 06:41:35;;;;;;;11.27;8.43;;;;;;;10.81;84.16;97373.41;5271141;56;20116;-73
2021/09/22 06:46:38;;;;;;;12.52;8.93;;;;;;;10.77;84.85;97376.28;5269174;56;20156;-74
2021/09/22 06:51:40;;;;;;;11.85;8.75;;;;;;;11.11;83.65;97377.69;5267986;56;20124;-73
2021/09/22 06:56:43;;;;;;;12.82;9.10;;;;;;;11.21;81.90;97388.47;5265010;56;20684;-76
2021/09/22 07:01:45;;;;;;;12.07;9.25;;;;;;;11.20;82.12;97386.13;5265746;56;20134;-75
2021/09/22 07:06:48;;;;;;;12.05;8.95;;;;;;;11.38;80.56;97376.06;5264304;56;20138;-75
2021/09/22 07:11:50;;;;;;;11.88;9.25;;;;;;;11.73;79.44;97388.06;5265014;56;20136;-75
2021/09/22 07:16:53;;;;;;;11.55;8.25;;;;;;;11.97;77.92;97392.03;5278964;56;20124;-75
2021/09/22 07:21:55;;;;;;;13.38;9.95;;;;;;;12.20;78.40;97385.34;5269179;56;20107;-76
2021/09/22 07:26:57;;;;;;;11.23;8.70;;;;;;;12.41;75.70;97372.75;5266127;56;20132;-74
2021/09/22 07:32:00;;;;;;;11.48;8.75;;;;;;;12.81;74.45;97376.47;5269000;56;20133;-75
2021/09/22 07:37:07;;;;;;;10.60;8.18;;;;;;;13.25;73.87;97374.47;5268406;56;20116;-75
2021/09/22 07:42:12;;;;;;;9.68;7.82;;;;;;;13.59;72.24;97377.13;5268760;56;20111;-74
2021/09/22 07:47:16;;;;;;;10.98;7.60;;;;;;;13.23;67.95;97388.78;5269562;56;20311;-77
2021/09/22 07:52:18;;;;;;;11.55;8.70;;;;;;;13.24;69.96;97395.13;5268872;56;20124;-74
2021/09/22 07:57:21;;;;;;;9.75;7.82;;;;;;;13.48;67.11;97405.28;5267136;56;20112;-74
2021/09/22 08:02:24;;;;;;;10.68;8.05;;;;;;;13.77;68.33;97406.97;5267753;56;20107;-74
2021/09/22 08:07:28;;;;;;;8.65;7.38;;;;;;;13.66;65.84;97404.59;5268382;56;20234;-77
2021/09/22 08:12:31;;;;;;;10.23;7.82;;;;;;;14.05;64.68;97401.03;5267613;56;20328;-75
2021/09/22 08:17:34;;;;;;;14.40;8.57;;;;;;;14.51;64.70;97401.16;5267118;56;20137;-75
2021/09/22 08:22:37;;;;;;;12.50;7.97;;;;;;;14.95;62.51;97394.81;5266915;56;20120;-74
2021/09/22 08:27:39;;;;;;;10.02;7.75;;;;;;;14.96;63.76;97407.50;5266894;56;20572;-74
2021/09/22 08:32:42;;;;;;;9.52;7.50;;;;;;;15.13;57.46;97405.16;5267449;56;20697;-75
2021/09/22 08:37:45;;;;;;;9.70;7.05;;;;;;;15.19;59.19;97392.16;5267004;56;20116;-74
2021/09/22 08:42:48;;;;;;;7.85;7.05;;;;;;;15.71;57.51;97391.75;5266083;56;20111;-74
2021/09/22 08:47:51;;;;;;;8.93;7.45;;;;;;;15.82;54.86;97393.22;5267275;56;20116;-73
2021/09/22 08:52:53;;;;;;;8.70;6.93;;;;;;;15.89;52.40;97390.09;5267295;56;20134;-74
2021/09/22 08:57:56;;;;;;;6.75;6.13;;;;;;;15.41;54.36;97386.38;5267515;56;20134;-74
2021/09/22 09:02:58;;;;;;;7.50;6.25;;;;;;;15.46;53.47;97394.91;5267143;56;20143;-74
2021/09/22 09:08:02;;;;;;;6.50;5.85;;;;;;;15.58;53.69;97399.50;5267074;56;20111;-74
2021/09/22 09:13:11;;;;;;;10.63;6.50;;;;;;;15.37;54.43;97399.69;5267619;56;20124;-75
2021/09/22 09:18:19;;;;;;;7.78;5.30;;;;;;;15.50;53.31;97397.53;5266856;56;20159;-74
2021/09/22 09:23:24;;;;;;;6.93;6.03;;;;;;;15.77;57.39;97392.63;5266196;56;20116;-75
2021/09/22 09:28:32;;;;;;;6.32;5.72;;;;;;;15.92;54.95;97391.97;5267005;56;20683;-75
2021/09/22 09:33:56;;;;;;;6.30;5.63;;;;;;;16.62;52.84;97398.84;5267298;56;20218;-72
2021/09/22 09:39:06;;;;;;;6.03;5.43;;;;;;;16.49;54.68;97399.06;5265595;56;20129;-72
2021/09/22 09:44:12;;;;;;;7.63;6.57;;;;;;;15.88;55.92;97405.28;5265164;56;20143;-72
2021/09/22 09:49:22;;;;;;;7.65;6.30;;;;;;;15.44;56.50;97405.75;5265012;56;20639;-71
2021/09/22 09:54:25;;;;;;;8.23;6.35;;;;;;;14.97;55.21;97402.72;5265535;56;20138;-74
2021/09/22 09:59:28;;;;;;;8.65;6.55;;;;;;;15.08;55.68;97395.41;5262412;56;20111;-75
2021/09/22 10:04:30;;;;;;;6.78;6.07;;;;;;;15.06;56.02;97402.72;5257818;56;20606;-73
2021/09/22 10:09:33;;;;;;;7.15;6.22;;;;;;;15.34;55.41;97390.28;5255330;56;20640;-73
2021/09/22 10:14:35;;;;;;;6.78;5.82;;;;;;;16.04;55.29;97393.75;5255831;56;20124;-73
2021/09/22 10:19:38;;;;;;;8.40;5.15;;;;;;;15.88;53.66;97386.53;5260279;56;20087;-72
2021/09/22 10:24:42;;;;;;;8.50;5.93;;;;;;;16.42;50.53;97383.44;5256401;56;20125;-75
2021/09/22 10:30:07;;;;;;;5.68;5.07;;;;;;;17.29;50.17;97384.13;5257493;56;20103;-72
2021/09/22 10:35:24;;;;;;;4.20;3.83;;;;;;;17.16;48.68;97379.59;5247743;56;20241;-74
2021/09/22 10:40:32;;;;;;;3.75;3.42;;;;;;;17.03;50.29;97384.69;5274021;56;20124;-73
2021/09/22 10:45:36;;;;;;;5.10;4.60;;;;;;;17.41;50.94;97377.50;5276984;56;20589;-73
2021/09/22 10:50:38;;;;;;;4.93;4.10;;;;;;;17.88;49.42;97361.28;5278649;55;20137;-73
2021/09/22 10:56:22;;;;;;;7.10;4.38;;;;;;;18.52;51.86;97357.59;5266275;56;20136;-74
2021/09/22 11:01:39;;;;;;;8.15;5.65;;;;;;;18.20;51.40;97359.44;5270575;56;20215;-75
2021/09/22 11:06:42;;;;;;;6.10;5.50;;;;;;;19.02;48.37;97352.59;5278589;56;20119;-75
2021/09/22 11:12:00;;;;;;;5.65;4.75;;;;;;;18.44;52.79;97357.22;5278746;56;20756;-75
2021/09/22 11:17:06;;;;;;;5.82;4.88;;;;;;;18.02;54.17;97358.94;5274171;56;20116;-75
2021/09/22 11:22:13;;;;;;;5.47;4.78;;;;;;;19.30;49.91;97353.59;5274925;56;20125;-73
2021/09/22 11:27:17;;;;;;;6.18;5.32;;;;;;;18.82;51.72;97330.97;5286847;45;20117;-73
2021/09/22 11:32:42;;;;;;;6.30;4.70;;;;;;;19.38;48.93;97325.94;5285289;56;20121;-75
2021/09/22 11:37:56;;;;;;;8.25;4.47;;;;;;;18.93;50.43;97331.06;5293351;55;20110;-75
2021/09/22 11:43:08;;;;;;;4.18;3.80;;;;;;;19.52;52.72;97320.19;5294534;55;20653;-76
2021/09/22 11:48:12;;;;;;;5.03;4.20;;;;;;;19.41;51.11;97317.28;5290974;56;20106;-75
2021/09/22 11:53:17;;;;;;;6.40;4.60;;;;;;;19.28;51.51;97302.91;5291632;55;20124;-75
2021/09/22 11:58:23;;;;;;;4.68;3.80;;;;;;;19.83;49.22;97297.72;5294550;56;20133;-75
2021/09/22 12:03:28;;;;;;;4.82;3.72;;;;;;;19.53;53.06;97299.31;5293565;55;20206;-75
2021/09/22 12:08:32;;;;;;;3.90;3.60;;;;;;;19.60;51.91;97298.06;5288012;56;20724;-76
2021/09/22 12:13:47;;;;;;;4.68;3.38;;;;;;;19.94;46.97;97289.41;5284941;55;20124;-74
2021/09/22 12:18:54;;;;;;;3.50;3.00;;;;;;;19.86;46.98;97287.53;5285410;55;20176;-74
2021/09/22 12:24:02;;;;;;;3.13;2.63;;;;;;;19.40;49.16;97284.16;5285492;55;20201;-74
2021/09/22 12:29:09;;;;;;;6.72;3.20;;;;;;;18.43;51.35;97276.56;5284942;55;20123;-74
2021/09/22 12:34:24;;;;;;;4.63;3.10;;;;;;;19.25;51.10;97278.66;5289943;55;20141;-75
2021/09/22 12:39:27;;;;;;;3.33;2.58;;;;;;;18.74;49.65;97278.69;5295349;55;20133;-76
2021/09/22 12:44:50;;;;;;;3.47;3.08;;;;;;;18.58;50.02;97277.25;5284300;55;20115;-76
2021/09/22 12:50:12;;;;;;;3.13;2.88;;;;;;;18.81;50.48;97273.44;5293364;55;20136;-74
2021/09/22 12:55:30;;;;;;;7.97;3.10;;;;;;;19.49;50.31;97256.72;5294672;55;20141;-75
2021/09/22 13:00:43;;;;;;;6.60;2.90;;;;;;;19.78;52.19;97250.78;5299050;55;20124;-75
2021/09/22 13:05:51;;;;;;;3.15;2.95;;;;;;;19.88;48.78;97263.31;5294451;55;20114;-76
2021/09/22 13:11:00;;;;;;;3.08;2.60;;;;;;;19.33;48.68;97255.31;5293165;55;20129;-76
2021/09/22 13:16:12;;;;;;;2.90;2.55;;;;;;;18.45;53.48;97248.88;5293065;55;20111;-76
2021/09/22 13:21:15;;;;;;;4.68;3.05;;;;;;;18.73;50.97;97243.53;5284771;55;20107;-75
2021/09/22 13:26:18;;;;;;;4.30;3.13;;;;;;;19.04;49.17;97238.00;5296624;55;20263;-76
2021/09/22 13:31:21;;;;;;;2.88;2.20;;;;;;;19.93;47.92;97231.72;5295906;55;20215;-74
2021/09/22 13:36:25;;;;;;;2.35;2.25;;;;;;;19.68;48.44;97231.84;5298540;55;20118;-75
2021/09/22 13:41:28;;;;;;;2.40;2.20;;;;;;;20.06;47.80;97222.09;5285826;55;20235;-75
2021/09/22 13:46:31;;;;;;;3.70;2.30;;;;;;;19.88;48.24;97232.47;5292572;55;20119;-74
2021/09/22 13:51:34;;;;;;;3.80;2.70;;;;;;;20.42;46.99;97219.19;5288610;55;20115;-75
2021/09/22 13:56:37;;;;;;;4.28;2.72;;;;;;;19.15;49.04;97216.44;5287889;55;20645;-76
2021/09/22 14:01:41;;;;;;;3.80;2.88;;;;;;;19.13;51.02;97209.78;5292559;55;20196;-76
2021/09/22 14:06:48;;;;;;;;;;;;;;;18.98;50.79;97217.53;5284293;55;20661;-75
2021/09/22 14:11:50;;;;;;;3.95;2.90;;;;;;;19.17;51.71;97215.94;5292282;55;20050;-76
2021/09/22 14:16:53;;;;;;;4.20;2.97;;;;;;;19.50;50.95;97223.81;5296182;55;20730;-76
2021/09/22 14:21:55;;;;;;;3.55;2.70;;;;;;;19.47;49.50;97205.97;5296100;55;20220;-75
2021/09/22 14:26:58;;;;;;;7.38;3.00;;;;;;;18.67;53.49;97206.31;5291938;55;20240;-76
2021/09/22 14:32:00;;;;;;;4.18;2.90;;;;;;;17.99;54.65;97197.69;5292849;55;20124;-75
2021/09/22 14:37:03;;;;;;;2.97;2.53;;;;;;;18.12;57.11;97196.06;5296093;55;20282;-76
2021/09/22 14:42:05;;;;;;;5.35;2.55;;;;;;;18.33;56.47;97194.00;5295218;55;20136;-75
2021/09/22 14:47:08;;;;;;;3.15;2.17;;;;;;;17.89;56.73;97194.25;5291914;55;20233;-76
2021/09/22 14:52:11;;;;;;;3.08;2.22;;;;;;;17.96;58.28;97193.81;5291830;55;20225;-78
2021/09/22 14:57:13;;;;;;;3.55;2.38;;;;;;;17.81;60.42;97187.53;5287702;55;20216;-75
2021/09/22 15:02:15;;;;;;;2.78;2.30;;;;;;;17.90;58.33;97195.78;5297792;55;20739;-75
2021/09/22 15:07:38;;;;;;;4.18;2.08;;;;;;;17.88;58.94;97185.09;5298190;55;20132;-73
2021/09/22 15:12:42;;;;;;;5.63;2.80;;;;;;;17.84;61.90;97192.16;5279374;56;20200;-73
2021/09/22 15:17:47;;;;;;;3.50;2.72;;;;;;;18.09;61.45;97179.50;5290454;56;20130;-75
2021/09/22 15:22:52;;;;;;;3.05;2.50;;;;;;;18.24;57.63;97180.94;5282930;55;20745;-74
2021/09/22 15:27:54;;;;;;;2.78;2.00;;;;;;;18.24;58.06;97168.97;5291028;56;20115;-74
2021/09/22 15:32:57;;;;;;;4.53;2.58;;;;;;;17.96;57.14;97160.25;5291804;56;20128;-74
2021/09/22 15:38:00;;;;;;;3.28;2.08;;;;;;;17.61;58.94;97163.16;5287406;56;20141;-74
2021/09/22 15:43:03;;;;;;;2.58;2.38;;;;;;;17.74;56.51;97160.00;5283734;56;20115;-75
2021/09/22 15:48:05;;;;;;;2.97;1.95;;;;;;;17.00;58.91;97175.47;5292820;55;20119;-74
2021/09/22 15:53:08;;;;;;;3.63;2.20;;;;;;;17.06;58.57;97174.28;5291027;55;20442;-74
2021/09/22 15:58:10;;;;;;;1.98;1.80;;;;;;;16.81;59.65;97180.47;5293585;55;20119;-74
2021/09/22 16:03:12;;;;;;;2.08;1.90;;;;;;;16.48;61.78;97175.09;5287107;55;20773;-74
2021/09/22 16:08:15;;;;;;;3.45;2.15;;;;;;;16.43;59.79;97172.97;5287022;55;20142;-75
2021/09/22 16:13:17;;;;;;;2.83;2.22;;;;;;;16.22;61.35;97157.34;5294611;55;20124;-74
2021/09/22 16:18:20;;;;;;;4.63;2.28;;;;;;;16.15;63.07;97170.91;5292384;55;20189;-74
2021/09/22 16:23:22;;;;;;;3.92;2.70;;;;;;;15.96;63.91;97169.53;5284482;55;20093;-74
2021/09/22 16:28:25;;;;;;;6.75;2.97;;;;;;;15.89;63.58;97173.47;5287748;55;20111;-74
2021/09/22 16:33:29;;;;;;;4.03;3.03;;;;;;;15.68;67.87;97166.19;5294986;55;20154;-74
2021/09/22 16:38:31;;;;;;;3.33;2.47;;;;;;;15.55;67.42;97166.44;5297970;55;20163;-73
2021/09/22 16:43:34;;;;;;;3.55;2.20;;;;;;;15.44;73.09;97159.88;5296391;55;20595;-74
2021/09/22 16:48:36;;;;;;;6.85;2.70;;;;;;;15.29;74.14;97154.19;5293561;55;20215;-74
2021/09/22 16:53:39;;;;;;;2.67;2.05;;;;;;;15.20;74.99;97153.50;5294915;55;20215;-74
2021/09/22 16:58:41;;;;;;;3.13;2.20;;;;;;;15.07;76.09;97156.47;5297174;55;20110;-74
2021/09/22 17:03:44;;;;;;;6.85;2.47;;;;;;;14.59;78.77;97150.03;5295491;55;20156;-74
2021/09/22 17:08:47;;;;;;;2.53;2.33;;;;;;;14.25;80.96;97158.72;5286113;55;20097;-74
2021/09/22 17:13:51;;;;;;;4.00;2.55;;;;;;;14.00;81.59;97165.41;5283324;55;20220;-74
2021/09/22 17:18:53;;;;;;;6.20;3.70;;;;;;;13.85;82.33;97160.94;5283618;55;20209;-74
2021/09/22 17:23:56;;;;;;;5.68;3.25;;;;;;;13.65;83.39;97166.97;5276245;55;20115;-74
2021/09/22 17:28:58;;;;;;;5.28;2.30;;;;;;;13.59;83.57;97175.13;5274935;55;20544;-74
2021/09/22 17:34:00;;;;;;;2.35;2.15;;;;;;;13.53;83.20;97165.09;5265758;55;20115;-74
2021/09/22 17:39:03;;;;;;;2.63;2.28;;;;;;;13.22;84.61;97162.44;5275308;55;20327;-74
2021/09/22 17:44:05;;;;;;;3.95;3.10;;;;;;;12.86;85.70;97165.06;5285012;55;20783;-74
2021/09/22 17:49:19;;;;;;;3.13;2.90;;;;;;;12.69;86.71;97158.19;5294066;55;20115;-74
2021/09/22 17:54:22;;;;;;;2.97;2.60;;;;;;;12.66;87.49;97154.38;5292525;55;20756;-74
2021/09/22 17:59:24;;;;;;;3.03;2.47;;;;;;;12.71;87.14;97150.97;5295395;55;20118;-74
2021/09/22 18:04:27;;;;;;;3.78;2.20;;;;;;;12.53;87.66;97158.47;5290066;55;20645;-74
2021/09/22 18:09:35;;;;;;;5.95;2.10;;;;;;;12.17;88.65;97157.00;5277034;55;20226;-74
2021/09/22 18:14:37;;;;;;;2.38;2.20;;;;;;;12.05;88.23;97152.31;5270754;55;20604;-74
2021/09/22 18:19:40;;;;;;;2.45;2.25;;;;;;;12.17;88.82;97159.00;5274832;55;20756;-74
2021/09/22 18:24:47;;;;;;;4.40;2.78;;;;;;;12.11;89.38;97160.81;5270591;55;20158;-72
2021/09/22 18:29:49;;;;;;;4.65;3.00;;;;;;;11.85;89.62;97151.09;5267208;55;20620;-74
2021/09/22 18:34:52;;;;;;;4.65;2.30;;;;;;;11.74;89.94;97156.22;5267772;55;20825;-74
2021/09/22 18:39:54;;;;;;;3.63;2.17;;;;;;;11.73;89.93;97154.69;5284123;55;20168;-73
2021/09/22 18:44:57;;;;;;;2.83;2.60;;;;;;;11.53;90.29;97144.66;5287150;55;20195;-73
2021/09/22 18:50:00;;;;;;;2.33;2.22;;;;;;;11.43;90.98;97145.81;5271751;55;20120;-73
2021/09/22 18:55:03;;;;;;;3.22;2.63;;;;;;;11.29;90.56;97145.50;5270995;55;20175;-74
2021/09/22 19:00:07;;;;;;;4.53;2.90;;;;;;;11.32;90.62;97147.41;5271305;55;20231;-74
2021/09/22 19:05:13;;;;;;;2.63;2.42;;;;;;;11.25;91.18;97153.94;5272221;55;20115;-74
2021/09/22 19:10:16;;;;;;;5.60;3.00;;;;;;;11.03;91.59;97155.88;5270743;56;20681;-72
2021/09/22 19:15:18;;;;;;;2.83;2.60;;;;;;;10.92;91.57;97147.16;5270523;56;20120;-73
2021/09/22 19:20:21;;;;;;;4.82;3.58;;;;;;;10.99;92.31;97154.44;5271586;56;20120;-74
2021/09/22 19:25:24;;;;;;;6.25;3.00;;;;;;;10.90;91.65;97155.09;5278970;55;20225;-74
2021/09/22 19:30:26;;;;;;;2.97;2.78;;;;;;;10.75;91.28;97151.25;5279004;55;20116;-74
2021/09/22 19:35:29;;;;;;;2.97;2.78;;;;;;;10.71;91.27;97153.34;5288136;55;20596;-73
2021/09/22 19:40:33;;;;;;;5.07;3.65;;;;;;;10.67;91.81;97147.16;5272356;55;20108;-74
2021/09/22 19:45:35;;;;;;;3.53;2.78;;;;;;;10.59;91.57;97145.81;5277855;55;20120;-73
2021/09/22 19:50:38;;;;;;;3.88;3.42;;;;;;;10.61;91.84;97152.47;5284011;55;20271;-74
2021/09/22 19:55:41;;;;;;;3.72;3.13;;;;;;;10.44;92.27;97148.25;5279729;55;20216;-74
2021/09/22 20:00:44;;;;;;;5.00;2.97;;;;;;;10.32;92.52;97148.22;5276702;55;20120;-73
2021/09/22 20:05:47;;;;;;;4.03;3.55;;;;;;;10.25;93.80;97151.22;5294978;55;20128;-73
2021/09/22 20:10:50;;;;;;;4.28;3.60;;;;;;;10.23;93.75;97143.38;5287525;55;20404;-72
2021/09/22 20:15:52;;;;;;;5.10;3.90;;;;;;;10.27;93.05;97141.28;5293330;55;20613;-73
2021/09/22 20:20:55;;;;;;;5.60;3.83;;;;;;;10.33;93.42;97135.97;5298002;55;20681;-74
2021/09/22 20:25:58;;;;;;;6.20;3.88;;;;;;;10.24;92.88;97138.63;5294941;55;20124;-73
2021/09/22 20:31:00;;;;;;;5.13;3.63;;;;;;;10.24;92.59;97130.34;5293654;55;20097;-73
2021/09/22 20:36:03;;;;;;;4.13;3.72;;;;;;;10.13;92.50;97143.69;5296523;55;20110;-73
2021/09/22 20:41:06;;;;;;;6.70;4.00;;;;;;;10.07;93.07;97135.13;5284671;55;20220;-73
2021/09/22 20:46:09;;;;;;;5.05;4.07;;;;;;;10.01;92.75;97140.44;5280410;55;20230;-74
2021/09/22 20:51:14;;;;;;;4.40;3.83;;;;;;;9.93;92.98;97139.09;5278361;55;20107;-74
2021/09/22 20:56:17;;;;;;;4.20;3.58;;;;;;;9.78;93.37;97140.69;5293773;55;20133;-74
2021/09/22 21:01:19;;;;;;;4.07;3.65;;;;;;;9.86;92.68;97133.75;5293223;55;20111;-73
2021/09/22 21:06:22;;;;;;;4.53;3.55;;;;;;;9.88;92.71;97136.84;5294899;55;20119;-73
2021/09/22 21:11:25;;;;;;;5.60;3.80;;;;;;;9.81;92.78;97137.09;5292045;55;20579;-73
2021/09/22 21:16:27;;;;;;;5.70;3.90;;;;;;;9.70;93.02;97131.06;5297002;55;20123;-73
2021/09/22 21:21:29;;;;;;;11.20;3.95;;;;;;;9.71;93.13;97126.31;5296462;55;20114;-73
2021/09/22 21:26:32;;;;;;;4.43;4.03;;;;;;;9.60;93.12;97132.13;5283419;55;20574;-73
2021/09/22 21:31:35;;;;;;;8.07;4.22;;;;;;;9.58;93.38;97139.31;5296098;55;20760;-73
2021/09/22 21:36:38;;;;;;;4.60;4.05;;;;;;;9.52;93.70;97128.00;5279773;55;20209;-73
2021/09/22 21:41:40;;;;;;;6.40;4.13;;;;;;;9.48;93.52;97123.78;5273503;55;20137;-73
2021/09/22 21:46:43;;;;;;;8.77;4.70;;;;;;;9.46;93.47;97131.75;5273317;55;20133;-73
2021/09/22 21:51:45;;;;;;;5.38;4.00;;;;;;;9.51;92.79;97120.19;5271983;55;20662;-73
2021/09/22 21:56:48;;;;;;;4.30;3.88;;;;;;;9.34;93.22;97124.94;5276077;55;20119;-73
2021/09/22 22:01:50;;;;;;;4.47;3.47;;;;;;;9.31;92.62;97125.84;5274207;55;20110;-73
2021/09/22 22:06:53;;;;;;;5.07;4.38;;;;;;;9.18;93.13;97131.28;5275987;55;20203;-73
2021/09/22 22:11:56;;;;;;;4.53;3.65;;;;;;;9.06;93.24;97128.47;5273970;55;20124;-72
2021/09/22 22:16:58;;;;;;;3.70;3.40;;;;;;;9.00;92.84;97117.16;5276918;55;20236;-73
2021/09/22 22:22:03;;;;;;;5.32;3.83;;;;;;;9.00;93.21;97130.94;5277696;55;20115;-73
2021/09/22 22:27:05;;;;;;;10.10;4.28;;;;;;;8.97;93.47;97131.06;5282085;55;20114;-73
2021/09/22 22:32:08;;;;;;;4.35;3.95;;;;;;;8.95;93.19;97125.19;5273240;55;20130;-73
2021/09/22 22:37:10;;;;;;;6.43;4.38;;;;;;;8.97;93.17;97131.06;5275892;55;20697;-73
2021/09/22 22:42:13;;;;;;;6.28;4.03;;;;;;;8.94;93.50;97121.66;5277216;55;20238;-73
2021/09/22 22:47:15;;;;;;;5.15;4.03;;;;;;;8.84;93.31;97128.22;5277100;55;20215;-73
2021/09/22 22:52:18;;;;;;;6.00;4.10;;;;;;;8.82;93.31;97118.84;5277394;55;20116;-73
2021/09/22 22:57:21;;;;;;;4.80;3.80;;;;;;;8.73;93.00;97111.16;5284020;55;20127;-73
2021/09/22 23:02:24;;;;;;;4.10;3.70;;;;;;;8.70;93.21;97108.50;5289884;55;20220;-73
2021/09/22 23:07:27;;;;;;;5.30;3.85;;;;;;;8.70;92.67;97114.00;5293493;55;20220;-73
2021/09/22 23:12:30;;;;;;;6.10;4.43;;;;;;;8.59;93.36;97111.50;5295830;55;20148;-73
2021/09/22 23:17:57;;;;;;;4.13;3.72;;;;;;;8.51;93.48;97101.84;5287960;55;20223;-73
2021/09/22 23:23:09;;;;;;;4.03;3.63;;;;;;;8.49;93.55;97087.75;5295368;55;20114;-73
2021/09/22 23:28:13;;;;;;;5.45;4.50;;;;;;;8.51;94.30;97091.63;5290910;56;20205;-73
2021/09/22 23:33:15;;;;;;;5.82;4.03;;;;;;;8.59;93.64;97081.97;5298309;56;20235;-73
2021/09/22 23:38:21;;;;;;;4.07;3.67;;;;;;;8.55;92.89;97078.53;5291347;55;20128;-73
2021/09/22 23:43:25;;;;;;;4.70;4.10;;;;;;;8.46;93.62;97072.84;5293785;44;20697;-74
2021/09/22 23:48:27;;;;;;;4.40;4.00;;;;;;;8.39;93.35;97073.00;5282204;56;20115;-75
2021/09/22 23:53:30;;;;;;;5.53;4.15;;;;;;;8.27;93.64;97068.19;5292053;56;20186;-75
2021/09/22 23:58:32;;;;;;;5.55;3.80;;;;;;;8.18;93.73;97069.97;5287603;56;20129;-74
